Time;durP1;ratioP1;P1;durP2;ratioP2;P2;SDS_P1;SDS_P2;PMS_P1;PMS_P2;Temp;Humidity;BMP_temperature;BMP_pressure;BME280_temperature;BME280_humidity;BME280_pressure;Samples;Min_cycle;Max_cycle;Signal;HPM_P1;HPM_P2
2023/09/10 00:03:45;;;;;;;7.68;5.95;;;;;;;-145.68;83.56;73499.78;10413348;28;20212;-71
2023/09/10 00:08:46;;;;;;;6.78;5.70;;;;;;;-145.68;84.08;73511.78;10411375;28;20212;-71
2023/09/10 00:13:46;;;;;;;9.38;6.47;;;;;;;-145.68;84.67;73527.78;10409340;28;20180;-71
2023/09/10 00:18:46;;;;;;;13.75;7.00;;;;;;;-145.68;84.51;73525.78;10409576;28;20220;-71
2023/09/10 00:23:47;;;;;;;7.28;5.72;;;;;;;-145.68;84.83;73525.78;10414918;28;20228;-71
2023/09/10 00:28:49;;;;;;;8.23;5.50;;;;;;;-145.68;84.61;73521.78;10409097;28;20713;-70
2023/09/10 00:33:50;;;;;;;11.15;6.50;;;;;;;-145.68;84.49;73531.78;10409586;28;20192;-72
2023/09/10 00:38:51;;;;;;;8.98;6.45;;;;;;;-145.68;84.17;73525.78;10409411;28;20767;-72
2023/09/10 00:43:51;;;;;;;7.72;5.55;;;;;;;-145.68;84.05;73537.78;10414407;28;20213;-73
2023/09/10 00:48:52;;;;;;;9.27;6.38;;;;;;;-145.68;83.34;73537.78;10391492;28;20216;-72
2023/09/10 00:53:52;;;;;;;6.30;5.70;;;;;;;-145.68;82.95;73535.78;10414252;28;20224;-72
2023/09/10 00:58:53;;;;;;;11.18;5.97;;;;;;;-145.68;83.16;73541.78;10398300;28;20246;-72
2023/09/10 01:03:54;;;;;;;7.57;5.63;;;;;;;-145.68;82.84;73543.78;10421542;28;20243;-71
2023/09/10 01:08:54;;;;;;;7.70;5.43;;;;;;;-145.68;82.72;73553.75;10415580;28;20698;-72
2023/09/10 01:14:12;;;;;;;6.20;5.57;;;;;;;-145.68;83.10;73565.75;10415923;28;20710;-72
2023/09/10 01:19:42;;;;;;;8.25;6.00;;;;;;;-145.68;83.36;73567.75;10402852;28;20211;-72
2023/09/10 01:24:50;;;;;;;6.78;5.80;;;;;;;-145.68;83.45;73567.75;10396867;28;20212;-71
2023/09/10 01:29:50;;;;;;;8.57;5.72;;;;;;;-145.68;83.83;73573.75;10414580;28;20311;-71
2023/09/10 01:35:18;;;;;;;7.00;6.28;;;;;;;-145.68;83.74;73581.75;10397528;28;20742;-71
2023/09/10 01:40:21;;;;;;;10.38;6.40;;;;;;;-145.68;83.68;73583.75;10388091;28;20698;-71
2023/09/10 01:45:22;;;;;;;10.05;6.70;;;;;;;-145.68;84.19;73597.75;10414229;28;20823;-71
2023/09/10 01:50:23;;;;;;;6.05;5.45;;;;;;;-145.68;84.21;73591.75;10379981;28;20272;-71
2023/09/10 01:55:24;;;;;;;5.95;4.63;;;;;;;-145.68;84.20;73599.72;10396277;28;20200;-71
2023/09/10 02:00:24;;;;;;;10.10;6.45;;;;;;;-145.68;84.91;73617.72;10401043;28;20277;-71
2023/09/10 02:05:25;;;;;;;9.13;5.43;;;;;;;-145.68;85.12;73617.72;10412930;28;20631;-71
2023/09/10 02:10:27;;;;;;;8.77;6.07;;;;;;;-145.68;85.72;73621.72;10413881;28;20682;-71
2023/09/10 02:15:28;;;;;;;6.60;5.95;;;;;;;-145.68;86.37;73631.72;10395552;28;20254;-72
2023/09/10 02:20:33;;;;;;;6.55;5.50;;;;;;;-145.68;86.16;73631.72;10418643;28;20213;-71
2023/09/10 02:25:34;;;;;;;6.68;5.35;;;;;;;-145.68;86.06;73627.72;10413300;28;20232;-70
2023/09/10 02:30:34;;;;;;;7.53;5.55;;;;;;;-145.68;86.84;73647.72;10412674;28;20742;-72
2023/09/10 02:35:34;;;;;;;6.85;5.72;;;;;;;-145.68;87.55;73655.69;10415744;28;20191;-71
2023/09/10 02:40:35;;;;;;;9.35;6.05;;;;;;;-145.68;88.61;73667.69;10414782;28;20219;-71
2023/09/10 02:45:35;;;;;;;6.47;5.85;;;;;;;-145.68;90.08;73685.69;10394783;28;20192;-71
2023/09/10 02:50:36;;;;;;;8.23;6.18;;;;;;;-145.68;92.04;73703.69;10394463;28;20208;-70
2023/09/10 02:55:36;;;;;;;8.90;6.05;;;;;;;-145.68;93.91;73717.66;10417377;28;20662;-71
2023/09/10 03:00:36;;;;;;;9.82;6.05;;;;;;;-145.68;94.99;73725.66;10412007;28;20216;-72
2023/09/10 03:05:37;;;;;;;7.82;6.10;;;;;;;-145.68;95.56;73727.66;10393843;28;20188;-71
2023/09/10 03:10:37;;;;;;;7.40;5.75;;;;;;;-145.68;95.86;73721.66;10411673;28;20639;-70
2023/09/10 03:15:38;;;;;;;7.45;6.05;;;;;;;-145.68;96.02;73717.66;10416345;28;20238;-71
2023/09/10 03:20:38;;;;;;;10.18;6.55;;;;;;;-145.68;96.83;73721.66;10393256;28;20759;-71
2023/09/10 03:25:39;;;;;;;9.25;6.05;;;;;;;-145.68;97.79;73735.66;10393455;28;20192;-71
2023/09/10 03:30:40;;;;;;;9.43;6.25;;;;;;;-145.68;98.64;73731.66;10364304;23;20246;-65
2023/09/10 03:35:41;;;;;;;10.40;6.55;;;;;;;-145.68;98.71;73723.66;10333578;28;20686;-65
2023/09/10 03:40:41;;;;;;;8.45;6.60;;;;;;;-145.68;98.35;73719.66;10328660;28;20218;-65
2023/09/10 03:45:42;;;;;;;8.80;6.13;;;;;;;-145.68;97.32;73713.66;10327847;28;20189;-65
2023/09/10 03:50:43;;;;;;;6.65;5.63;;;;;;;-145.68;96.33;73699.69;10327529;28;20210;-64
2023/09/10 03:55:44;;;;;;;7.47;6.15;;;;;;;-145.68;95.76;73699.69;10333946;28;20197;-65
2023/09/10 04:00:44;;;;;;;7.25;5.85;;;;;;;-145.68;96.30;73697.69;10326755;28;20272;-65
2023/09/10 04:05:45;;;;;;;7.90;6.78;;;;;;;-145.68;96.22;73705.69;10328173;28;20193;-65
2023/09/10 04:10:45;;;;;;;9.00;6.55;;;;;;;-145.68;96.83;73711.66;10331154;28;20209;-64
2023/09/10 04:15:46;;;;;;;7.25;5.45;;;;;;;-145.68;97.95;73713.66;10328306;28;20683;-64
2023/09/10 04:20:46;;;;;;;7.70;6.80;;;;;;;-145.68;98.61;73719.66;10326857;28;20226;-64
2023/09/10 04:25:49;;;;;;;7.95;5.65;;;;;;;-145.68;99.17;73715.66;10328742;28;20190;-64
2023/09/10 04:30:50;;;;;;;9.68;5.43;;;;;;;-145.68;99.45;73711.66;10340815;28;20234;-64
2023/09/10 04:35:53;;;;;;;9.35;6.65;;;;;;;-145.68;99.67;73715.66;10335724;28;20198;-65
2023/09/10 04:40:55;;;;;;;8.80;5.70;;;;;;;-145.68;99.62;73713.66;10335696;28;20230;-64
2023/09/10 04:45:56;;;;;;;10.88;7.40;;;;;;;-145.68;100.00;73721.66;10334342;28;20644;-64
2023/09/10 04:50:56;;;;;;;9.25;6.60;;;;;;;-145.68;100.00;73729.66;10339692;28;20214;-64
2023/09/10 04:55:57;;;;;;;9.00;6.63;;;;;;;-145.68;100.00;73743.66;10333543;28;20201;-63
2023/09/10 05:00:59;;;;;;;9.27;6.80;;;;;;;-145.68;100.00;73739.66;10333390;28;20218;-64
2023/09/10 05:06:05;;;;;;;7.28;5.85;;;;;;;-145.68;100.00;73743.66;10333281;28;20668;-64
2023/09/10 05:11:05;;;;;;;9.35;6.63;;;;;;;-145.68;100.00;73733.66;10338922;28;20210;-65
2023/09/10 05:16:06;;;;;;;8.57;7.43;;;;;;;-145.68;100.00;73721.66;10333446;28;20284;-64
2023/09/10 05:21:06;;;;;;;6.95;6.25;;;;;;;-145.68;100.00;73727.66;10332479;28;20696;-64
2023/09/10 05:26:07;;;;;;;10.02;6.55;;;;;;;-145.68;100.00;73719.66;10333146;28;20198;-65
2023/09/10 05:31:08;;;;;;;8.52;6.00;;;;;;;-145.68;100.00;73697.69;10337475;28;20232;-65
2023/09/10 05:36:10;;;;;;;9.02;6.13;;;;;;;-145.68;97.42;73619.72;10332574;28;20198;-66
2023/09/10 05:41:11;;;;;;;7.38;6.35;;;;;;;-145.68;89.96;73563.75;10331914;28;20225;-65
2023/09/10 05:46:11;;;;;;;6.82;6.07;;;;;;;-145.68;86.71;73541.78;10344083;28;20185;-65
2023/09/10 05:51:12;;;;;;;6.85;6.10;;;;;;;-145.68;84.51;73513.78;10331753;28;20212;-65
2023/09/10 05:56:13;;;;;;;7.10;6.22;;;;;;;-145.68;81.67;73461.81;10327504;28;20288;-65
2023/09/10 06:01:13;;;;;;;7.22;6.18;;;;;;;-145.68;78.13;73395.84;10334353;28;20217;-65
2023/09/10 06:06:14;;;;;;;6.35;5.75;;;;;;;-145.68;73.76;73319.91;10337921;28;20564;-65
2023/09/10 06:11:15;;;;;;;6.57;5.70;;;;;;;-145.68;72.50;73285.94;10330997;28;20213;-65
2023/09/10 06:16:16;;;;;;;7.70;5.55;;;;;;;-145.68;69.80;73257.94;10331026;28;20229;-65
2023/09/10 06:21:16;;;;;;;6.07;5.47;;;;;;;-145.68;68.84;73229.97;10330266;28;20221;-65
2023/09/10 06:26:17;;;;;;;7.63;6.10;;;;;;;-145.68;68.76;73207.97;10337489;28;20205;-65
2023/09/10 06:31:17;;;;;;;6.93;5.63;;;;;;;-145.68;68.16;73166.00;10329846;28;20628;-66
2023/09/10 06:36:18;;;;;;;10.57;5.97;;;;;;;-145.68;66.21;73128.03;10330205;28;20281;-65
2023/09/10 06:41:18;;;;;;;8.48;5.85;;;;;;;-145.68;65.58;73074.06;10329873;28;20214;-65
2023/09/10 06:46:19;;;;;;;8.93;6.03;;;;;;;-145.68;64.70;73040.09;10339435;28;20193;-65
2023/09/10 06:51:19;;;;;;;6.95;6.20;;;;;;;-145.68;63.25;72962.16;10331672;28;20655;-66
2023/09/10 06:56:20;;;;;;;9.82;5.88;;;;;;;-145.68;59.02;72876.22;10330534;28;20198;-65
2023/09/10 07:01:21;;;;;;;6.22;5.63;;;;;;;-145.68;56.14;72756.31;10328487;28;20257;-65
2023/09/10 07:06:21;;;;;;;8.02;5.97;;;;;;;-145.68;55.36;72742.31;10329547;28;20221;-66
2023/09/10 07:11:22;;;;;;;6.30;5.70;;;;;;;-145.68;55.45;72694.38;10330083;28;20297;-66
2023/09/10 07:16:23;;;;;;;7.57;5.60;;;;;;;-145.68;52.50;72566.47;10329550;28;20223;-66
2023/09/10 07:21:23;;;;;;;6.22;5.22;;;;;;;-145.68;53.36;72602.44;10335145;28;20226;-66
2023/09/10 07:26:24;;;;;;;7.10;5.10;;;;;;;-145.68;51.25;72480.53;10329201;28;20653;-66
2023/09/10 07:31:24;;;;;;;6.90;5.00;;;;;;;-145.68;49.16;72346.66;10328944;28;20778;-65
2023/09/10 07:36:24;;;;;;;6.35;5.18;;;;;;;-145.68;50.06;72398.63;10329356;28;20209;-66
2023/09/10 07:41:25;;;;;;;7.05;5.15;;;;;;;-145.68;45.31;72166.81;10334083;28;20236;-66
2023/09/10 07:46:25;;;;;;;9.80;5.05;;;;;;;-145.68;43.18;72058.94;10329150;28;20201;-66
2023/09/10 07:51:25;;;;;;;4.80;4.20;;;;;;;-145.68;41.29;71893.09;10334863;28;20209;-66
2023/09/10 07:56:27;;;;;;;5.40;4.47;;;;;;;-145.68;39.76;71889.09;10347228;28;20532;-66
2023/09/10 08:01:27;;;;;;;5.18;4.68;;;;;;;-145.68;38.84;71853.13;10332668;28;20217;-67
2023/09/10 08:06:27;;;;;;;9.53;4.70;;;;;;;-145.68;37.59;71859.13;10337134;28;20197;-66
2023/09/10 08:11:28;;;;;;;4.77;4.27;;;;;;;-145.68;36.24;71743.25;10336932;28;20453;-67
2023/09/10 08:16:28;;;;;;;6.00;4.10;;;;;;;-145.68;35.30;71773.22;10336547;28;20463;-66
2023/09/10 08:21:29;;;;;;;8.53;4.53;;;;;;;-145.68;34.96;71723.25;10342213;28;20228;-67
2023/09/10 08:26:29;;;;;;;5.82;4.70;;;;;;;-145.68;33.33;71565.44;10336397;28;20510;-67
2023/09/10 08:31:30;;;;;;;7.87;4.33;;;;;;;-145.68;33.77;71691.28;10335805;28;20238;-67
2023/09/10 08:36:30;;;;;;;6.00;4.65;;;;;;;-145.68;34.83;71773.22;10338314;28;20444;-67
2023/09/10 08:41:57;;;;;;;6.47;4.50;;;;;;;-145.68;35.64;71793.19;10341398;28;20220;-67
2023/09/10 08:47:00;;;;;;;6.32;4.32;;;;;;;-145.68;32.46;71485.53;10316329;28;20206;-67
2023/09/10 08:52:01;;;;;;;5.60;4.13;;;;;;;-145.68;31.21;71493.50;10335207;28;20950;-68
2023/09/10 08:57:01;;;;;;;4.75;4.13;;;;;;;-145.68;30.31;71309.72;10340837;28;20205;-68
2023/09/10 09:02:02;;;;;;;6.85;4.72;;;;;;;-145.68;32.10;71557.44;10333274;28;20229;-68
2023/09/10 09:07:03;;;;;;;5.50;4.20;;;;;;;-145.68;30.39;71313.72;10333666;28;20275;-68
2023/09/10 09:12:03;;;;;;;5.72;4.10;;;;;;;-145.68;29.01;71125.94;10333837;28;20259;-68
2023/09/10 09:17:05;;;;;;;4.90;4.40;;;;;;;-145.68;29.21;71215.81;10338501;28;20268;-66
2023/09/10 09:22:07;;;;;;;6.13;4.47;;;;;;;-145.68;30.58;71301.72;10333014;28;20228;-67
2023/09/10 09:27:07;;;;;;;5.88;4.68;;;;;;;-145.68;30.67;71399.63;10334046;28;20271;-67
2023/09/10 09:32:08;;;;;;;4.53;4.13;;;;;;;-145.68;31.72;71435.56;10388909;23;20244;-67
2023/09/10 09:37:08;;;;;;;10.38;4.57;;;;;;;-145.68;31.69;71409.59;10379684;28;20197;-67
2023/09/10 09:42:10;;;;;;;10.20;5.00;;;;;;;-145.68;31.58;71509.50;10374186;28;20701;-68
2023/09/10 09:47:13;;;;;;;7.75;4.47;;;;;;;-145.68;30.53;71261.78;10379991;28;20197;-68
2023/09/10 09:52:16;;;;;;;6.93;4.60;;;;;;;-145.68;30.42;71279.75;10375454;28;20798;-71
2023/09/10 09:57:17;;;;;;;6.25;4.72;;;;;;;-145.68;31.31;71355.66;10380007;28;20207;-68
2023/09/10 10:02:18;;;;;;;4.68;4.22;;;;;;;-145.68;30.92;71317.72;10374037;28;20600;-70
2023/09/10 10:07:22;;;;;;;5.00;4.38;;;;;;;-145.68;31.56;71433.56;10374511;28;20205;-70
2023/09/10 10:12:22;;;;;;;7.15;4.80;;;;;;;-145.68;30.66;71231.81;10367263;28;20205;-71
2023/09/10 10:17:23;;;;;;;10.30;4.60;;;;;;;-145.68;29.72;71155.91;10373559;28;20215;-69
2023/09/10 10:22:23;;;;;;;5.15;4.65;;;;;;;-145.68;29.13;71093.97;10373629;28;20223;-71
2023/09/10 10:27:25;;;;;;;9.35;4.70;;;;;;;-145.68;31.03;71469.53;10354476;28;20203;-69
2023/09/10 10:32:32;;;;;;;5.97;5.10;;;;;;;-145.68;32.51;71509.50;10360227;28;20299;-70
2023/09/10 10:37:44;;;;;;;4.82;4.35;;;;;;;-145.68;30.74;71277.75;10372991;28;20268;-71
2023/09/10 10:42:58;;;;;;;6.72;5.00;;;;;;;-145.68;30.00;71263.78;10370651;28;20217;-71
2023/09/10 10:48:00;;;;;;;6.32;5.10;;;;;;;-145.68;31.04;71241.78;10370073;28;20551;-70
2023/09/10 10:53:06;;;;;;;7.55;4.90;;;;;;;-145.68;28.81;71105.97;10360107;28;20266;-70
2023/09/10 10:58:07;;;;;;;5.53;4.68;;;;;;;-145.68;29.44;71153.91;10371388;28;20209;-69
2023/09/10 11:03:09;;;;;;;5.28;4.78;;;;;;;-145.68;29.88;71221.81;10370320;28;20217;-69
2023/09/10 11:08:25;;;;;;;6.05;4.63;;;;;;;-145.68;31.03;71317.72;10370969;28;20276;-70
2023/09/10 11:13:26;;;;;;;5.15;4.65;;;;;;;-145.68;28.49;71135.91;10351449;28;20192;-70
2023/09/10 11:18:37;;;;;;;6.55;4.50;;;;;;;-145.68;29.47;71097.97;10369822;28;20231;-70
2023/09/10 11:24:05;;;;;;;7.60;4.60;;;;;;;-145.68;30.29;71165.88;10370365;28;20247;-70
2023/09/10 11:29:06;;;;;;;10.52;4.45;;;;;;;-145.68;29.66;71072.00;10375666;28;20241;-69
2023/09/10 11:34:27;;;;;;;6.18;4.28;;;;;;;-145.68;27.88;70890.22;10353921;28;20204;-70
2023/09/10 11:39:29;;;;;;;8.35;4.47;;;;;;;-145.68;26.83;70744.41;10371989;28;20216;-70
2023/09/10 11:44:29;;;;;;;6.45;4.30;;;;;;;-145.68;27.27;70802.34;10372697;28;20197;-71
2023/09/10 11:49:30;;;;;;;7.25;4.00;;;;;;;-145.68;28.29;70986.09;10377413;28;20239;-71
2023/09/10 11:54:30;;;;;;;4.63;4.22;;;;;;;-145.68;28.08;70880.22;10372357;28;20262;-70
2023/09/10 11:59:30;;;;;;;7.15;4.30;;;;;;;-145.68;27.90;70878.25;10371481;28;20247;-70
2023/09/10 12:04:32;;;;;;;5.03;4.30;;;;;;;-145.68;29.60;71107.94;10371631;28;20212;-70
2023/09/10 12:09:32;;;;;;;4.32;3.92;;;;;;;-145.68;26.38;70804.34;10359891;28;20220;-69
2023/09/10 12:14:33;;;;;;;4.87;4.33;;;;;;;-145.68;26.46;70796.34;10370741;28;20192;-70
2023/09/10 12:19:35;;;;;;;5.20;4.30;;;;;;;-145.68;27.57;70840.28;10371363;28;20452;-70
2023/09/10 12:24:36;;;;;;;5.85;4.30;;;;;;;-145.68;27.69;70874.25;10374150;28;20716;-69
2023/09/10 12:29:36;;;;;;;7.40;4.30;;;;;;;-145.68;26.97;70786.34;10354301;28;20228;-69
2023/09/10 12:34:37;;;;;;;5.73;4.40;;;;;;;-145.68;27.06;70732.44;10352130;28;20733;-68
2023/09/10 12:39:37;;;;;;;4.55;4.15;;;;;;;-145.68;27.85;70934.16;10369340;28;20846;-69
2023/09/10 12:44:39;;;;;;;5.03;3.83;;;;;;;-145.68;26.81;70764.38;10375025;28;20192;-69
2023/09/10 12:49:39;;;;;;;5.45;4.20;;;;;;;-145.68;28.33;70876.25;10373832;28;20848;-69
2023/09/10 12:54:40;;;;;;;6.93;4.37;;;;;;;-145.68;26.23;70726.44;10376745;28;20196;-69
2023/09/10 12:59:40;;;;;;;8.33;4.30;;;;;;;-145.68;26.20;70624.56;10377277;28;20466;-69
2023/09/10 13:04:41;;;;;;;4.87;4.30;;;;;;;-145.68;27.14;70794.34;10381489;28;20435;-70
2023/09/10 13:09:41;;;;;;;4.40;3.97;;;;;;;-145.68;26.36;70654.53;10377889;28;20454;-70
2023/09/10 13:14:41;;;;;;;5.30;3.90;;;;;;;-145.68;26.08;70610.59;10376623;28;20569;-69
2023/09/10 13:19:42;;;;;;;5.17;4.20;;;;;;;-145.68;25.59;70658.53;10377162;28;20212;-69
2023/09/10 13:24:42;;;;;;;5.03;4.47;;;;;;;-145.68;26.37;70844.28;10381651;28;20287;-70
2023/09/10 13:29:43;;;;;;;4.73;3.90;;;;;;;-145.68;26.89;70802.34;10376074;28;20471;-70
2023/09/10 13:34:44;;;;;;;5.80;4.05;;;;;;;-145.68;25.57;70650.53;10376337;28;20200;-70
2023/09/10 13:39:44;;;;;;;5.77;4.00;;;;;;;-145.68;25.68;70642.53;10376134;28;20208;-70
2023/09/10 13:44:44;;;;;;;4.60;4.13;;;;;;;-145.68;24.92;70516.72;10381452;28;20447;-70
2023/09/10 13:49:45;;;;;;;4.23;3.83;;;;;;;-145.68;25.98;70696.47;10373381;28;20216;-69
2023/09/10 13:54:45;;;;;;;7.37;4.20;;;;;;;-145.68;25.59;70674.50;10373571;28;20542;-70
2023/09/10 13:59:45;;;;;;;4.43;4.03;;;;;;;-145.68;25.43;70622.56;10376025;28;20231;-69
2023/09/10 14:04:46;;;;;;;5.43;3.97;;;;;;;-145.68;25.67;70650.53;10374606;28;20196;-69
2023/09/10 14:09:46;;;;;;;6.15;4.38;;;;;;;-145.68;25.97;70820.31;10372653;28;20212;-69
2023/09/10 14:14:47;;;;;;;5.30;4.13;;;;;;;-145.68;25.92;70686.47;10372817;28;20204;-69
2023/09/10 14:19:47;;;;;;;4.03;3.73;;;;;;;-145.68;24.99;70668.50;10378071;28;20470;-69
2023/09/10 14:24:48;;;;;;;5.13;4.30;;;;;;;-145.68;25.07;70556.66;10372399;28;20446;-69
2023/09/10 14:29:48;;;;;;;10.73;4.20;;;;;;;-145.68;25.37;70782.34;10372024;28;20252;-69
2023/09/10 14:34:49;;;;;;;7.10;4.00;;;;;;;-145.68;24.75;70458.78;10371937;28;20259;-69
2023/09/10 14:39:51;;;;;;;6.72;4.20;;;;;;;-145.68;24.51;70494.75;10377483;28;20290;-69
2023/09/10 14:44:51;;;;;;;4.97;4.00;;;;;;;-145.68;24.99;70440.81;10371668;28;20193;-70
2023/09/10 14:49:52;;;;;;;7.72;4.35;;;;;;;-145.68;24.52;70404.88;10371200;28;20212;-70
2023/09/10 14:54:52;;;;;;;4.83;3.93;;;;;;;-145.68;24.23;70342.94;10371317;28;20216;-70
2023/09/10 14:59:53;;;;;;;3.97;3.60;;;;;;;-145.68;23.71;70241.09;10376489;28;20213;-70
2023/09/10 15:04:54;;;;;;;4.72;3.90;;;;;;;-145.68;22.94;70067.34;10371949;28;20197;-69
2023/09/10 15:09:54;;;;;;;3.92;3.58;;;;;;;-145.68;22.62;70039.38;10369612;28;20224;-70
2023/09/10 15:14:54;;;;;;;4.38;3.97;;;;;;;-145.68;22.36;70087.31;10365839;28;20205;-70
2023/09/10 15:19:55;;;;;;;4.97;3.67;;;;;;;-145.68;23.45;70227.13;10371903;28;20228;-71
2023/09/10 15:24:55;;;;;;;4.30;3.90;;;;;;;-145.68;23.52;70243.09;10381235;28;20189;-71
2023/09/10 15:29:56;;;;;;;4.37;3.93;;;;;;;-145.68;23.36;70165.19;10373065;28;20232;-71
2023/09/10 15:34:56;;;;;;;5.35;4.25;;;;;;;-145.68;23.27;70179.19;10375909;28;20196;-71
2023/09/10 15:39:57;;;;;;;5.30;4.30;;;;;;;-145.68;23.50;70133.25;10368215;28;20223;-72
2023/09/10 15:44:57;;;;;;;5.20;3.70;;;;;;;-145.68;23.62;70117.28;10370234;28;20196;-68
2023/09/10 15:49:59;;;;;;;4.60;4.07;;;;;;;-145.68;22.62;70109.28;10399925;23;20335;-65
2023/09/10 15:55:03;;;;;;;10.80;4.22;;;;;;;-145.68;23.66;70171.19;10382212;28;20212;-65
2023/09/10 16:00:06;;;;;;;4.47;4.07;;;;;;;-145.68;24.01;70235.09;10372000;28;20280;-65
2023/09/10 16:05:09;;;;;;;6.05;4.20;;;;;;;-145.68;24.40;70299.00;10369368;28;20685;-65
2023/09/10 16:10:10;;;;;;;21.15;5.60;;;;;;;-145.68;25.07;70384.88;10369065;28;20212;-65
2023/09/10 16:15:10;;;;;;;6.80;4.25;;;;;;;-145.68;25.56;70464.78;10374884;28;20243;-65
2023/09/10 16:20:11;;;;;;;5.53;4.45;;;;;;;-145.68;25.40;70470.78;10368846;28;20760;-65
2023/09/10 16:25:12;;;;;;;6.55;5.30;;;;;;;-145.68;27.57;70734.41;10380932;28;20221;-65
2023/09/10 16:30:13;;;;;;;5.77;5.17;;;;;;;-145.68;29.08;70948.16;10373188;28;20288;-66
2023/09/10 16:35:14;;;;;;;7.15;5.55;;;;;;;-145.68;32.43;71377.63;10382389;28;20439;-66
2023/09/10 16:40:14;;;;;;;9.07;5.63;;;;;;;-145.68;36.16;71739.25;10374836;28;20251;-66
2023/09/10 16:45:15;;;;;;;10.13;5.57;;;;;;;-145.68;38.11;71915.06;10378787;28;20286;-65
2023/09/10 16:50:15;;;;;;;7.80;6.45;;;;;;;-145.68;42.62;72246.75;10375514;28;20236;-66
2023/09/10 16:55:16;;;;;;;8.13;6.13;;;;;;;-145.68;45.98;72394.63;10372174;28;20575;-66
2023/09/10 17:00:16;;;;;;;6.35;5.63;;;;;;;-145.68;47.90;72556.47;10375640;28;20212;-66
2023/09/10 17:05:17;;;;;;;7.78;6.93;;;;;;;-145.68;48.80;72562.47;10376511;28;20200;-67
2023/09/10 17:10:17;;;;;;;13.57;6.55;;;;;;;-145.68;48.79;72538.50;10372868;28;20259;-66
2023/09/10 17:15:17;;;;;;;8.15;6.45;;;;;;;-145.68;48.06;72528.50;10369135;28;20205;-67
2023/09/10 17:20:18;;;;;;;7.65;5.88;;;;;;;-145.68;49.14;72608.44;10370701;28;20259;-67
2023/09/10 17:25:18;;;;;;;8.50;6.55;;;;;;;-145.68;49.58;72620.41;10378168;28;20205;-67
2023/09/10 17:30:18;;;;;;;9.23;5.53;;;;;;;-145.68;50.04;72676.38;10386263;28;20695;-67
2023/09/10 17:35:19;;;;;;;6.50;5.90;;;;;;;-145.68;51.15;72730.34;10374398;28;20197;-67
2023/09/10 17:40:21;;;;;;;6.97;6.03;;;;;;;-145.68;52.54;72788.28;10374386;28;20213;-67
2023/09/10 17:45:22;;;;;;;9.38;6.28;;;;;;;-145.68;53.54;72792.28;10374055;28;20560;-67
2023/09/10 17:50:22;;;;;;;7.45;6.10;;;;;;;-145.68;54.05;72806.28;10385296;28;20225;-67
2023/09/10 17:55:22;;;;;;;10.75;6.40;;;;;;;-145.68;54.93;72852.25;10373610;28;20331;-67
2023/09/10 18:00:23;;;;;;;14.52;7.18;;;;;;;-145.68;56.16;72868.22;10372934;28;20219;-67
2023/09/10 18:05:23;;;;;;;8.63;6.60;;;;;;;-145.68;57.44;72892.22;10374296;28;20201;-67
2023/09/10 18:10:24;;;;;;;6.93;6.05;;;;;;;-145.68;58.87;72924.19;10382389;28;20225;-66
2023/09/10 18:15:24;;;;;;;7.38;5.97;;;;;;;-145.68;59.81;72948.16;10371639;28;20651;-66
2023/09/10 18:20:24;;;;;;;10.15;7.00;;;;;;;-145.68;61.15;72976.16;10372735;28;20275;-67
2023/09/10 18:25:25;;;;;;;8.60;6.53;;;;;;;-145.68;62.00;73006.13;10365194;28;20190;-67
2023/09/10 18:30:26;;;;;;;8.35;7.35;;;;;;;-145.68;63.20;73032.09;10376840;28;20213;-67
2023/09/10 18:35:27;;;;;;;8.32;7.10;;;;;;;-145.68;63.61;73052.09;10371121;28;20671;-67
2023/09/10 18:40:27;;;;;;;11.80;8.02;;;;;;;-145.68;65.29;73060.09;10371266;28;20217;-67
2023/09/10 18:45:29;;;;;;;9.27;7.00;;;;;;;-145.68;65.94;73074.06;10373891;28;20207;-67
2023/09/10 18:50:29;;;;;;;9.18;7.47;;;;;;;-145.68;67.26;73098.06;10373831;28;20736;-67
2023/09/10 18:55:30;;;;;;;10.32;7.75;;;;;;;-145.68;68.50;73114.03;10370362;28;20200;-66
2023/09/10 19:00:30;;;;;;;10.30;7.63;;;;;;;-145.68;69.27;73118.03;10372028;28;20205;-66
2023/09/10 19:05:30;;;;;;;33.03;22.42;;;;;;;-145.68;70.00;73144.03;10375710;28;20203;-67
2023/09/10 19:10:31;;;;;;;10.48;7.43;;;;;;;-145.68;71.54;73154.03;10369768;28;20228;-66
2023/09/10 19:15:31;;;;;;;13.38;9.60;;;;;;;-145.68;72.08;73176.00;10370253;28;20215;-67
2023/09/10 19:20:32;;;;;;;15.80;11.02;;;;;;;-145.68;74.31;73200.00;10354112;28;20244;-67
2023/09/10 19:25:32;;;;;;;18.83;13.85;;;;;;;-145.68;75.84;73209.97;10375274;28;20207;-67
2023/09/10 19:30:36;;;;;;;11.93;10.68;;;;;;;-145.68;77.02;73219.97;10368984;28;20216;-66
2023/09/10 19:35:36;;;;;;;11.75;9.00;;;;;;;-145.68;77.69;73225.97;10369124;28;20193;-66
2023/09/10 19:40:37;;;;;;;12.20;10.43;;;;;;;-145.68;79.17;73257.94;10370880;28;20216;-66
2023/09/10 19:45:37;;;;;;;11.15;9.93;;;;;;;-145.68;81.19;73269.94;10374518;28;20213;-66
2023/09/10 19:50:38;;;;;;;13.15;9.82;;;;;;;-145.68;82.56;73277.94;10368270;28;20282;-66
2023/09/10 19:55:38;;;;;;;13.55;9.40;;;;;;;-145.68;84.31;73287.94;10368576;28;20197;-66
2023/09/10 20:00:42;;;;;;;13.13;8.82;;;;;;;-145.68;84.96;73283.94;10370685;28;20209;-66
2023/09/10 20:05:42;;;;;;;13.68;8.85;;;;;;;-145.68;85.55;73301.91;10363054;28;20197;-66
2023/09/10 20:10:43;;;;;;;12.13;10.55;;;;;;;-145.68;87.31;73321.91;10363771;28;20588;-67
2023/09/10 20:15:43;;;;;;;17.23;11.48;;;;;;;-145.68;89.36;73335.91;10348562;28;20181;-66
2023/09/10 20:20:43;;;;;;;10.85;9.38;;;;;;;-145.68;90.76;73345.88;10368511;28;20201;-66
2023/09/10 20:25:44;;;;;;;14.80;10.00;;;;;;;-145.68;91.73;73341.91;10368660;28;20197;-67
2023/09/10 20:30:44;;;;;;;10.68;9.43;;;;;;;-145.68;92.20;73355.88;10368388;28;20220;-66
2023/09/10 20:35:45;;;;;;;10.70;8.75;;;;;;;-145.68;92.80;73363.88;10374498;28;20197;-67
2023/09/10 20:40:45;;;;;;;12.63;9.50;;;;;;;-145.68;94.03;73371.88;10368395;28;20205;-67
2023/09/10 20:45:47;;;;;;;15.07;9.73;;;;;;;-145.68;94.29;73379.88;10368640;28;20200;-65
2023/09/10 20:50:47;;;;;;;11.73;9.00;;;;;;;-145.68;94.54;73381.88;10367891;28;20229;-66
2023/09/10 20:55:48;;;;;;;10.27;9.23;;;;;;;-145.68;95.26;73393.84;10374038;28;20702;-65
2023/09/10 21:00:48;;;;;;;11.77;8.52;;;;;;;-145.68;95.20;73399.84;10368471;28;20217;-65
2023/09/10 21:05:49;;;;;;;14.15;8.95;;;;;;;-145.68;94.88;73405.84;10367581;28;20587;-66
2023/09/10 21:10:49;;;;;;;10.75;9.50;;;;;;;-145.68;95.54;73423.84;10372868;28;20232;-65
2023/09/10 21:15:49;;;;;;;11.95;8.73;;;;;;;-145.68;95.61;73419.84;10380905;28;20201;-65
2023/09/10 21:20:50;;;;;;;12.35;8.98;;;;;;;-145.68;94.28;73421.84;10375133;28;20213;-65
2023/09/10 21:25:50;;;;;;;12.38;9.13;;;;;;;-145.68;95.24;73443.84;10374955;28;20574;-66
2023/09/10 21:30:50;;;;;;;9.80;8.40;;;;;;;-145.68;96.78;73457.81;10374497;28;20224;-65
2023/09/10 21:35:52;;;;;;;12.50;8.80;;;;;;;-145.68;96.55;73459.81;10380336;28;20197;-66
2023/09/10 21:40:52;;;;;;;11.13;9.10;;;;;;;-145.68;94.99;73463.81;10373969;28;20217;-65
2023/09/10 21:45:53;;;;;;;13.93;8.05;;;;;;;-145.68;94.82;73469.81;10374345;28;20659;-66
2023/09/10 21:50:53;;;;;;;10.88;8.85;;;;;;;-145.68;93.43;73461.81;10403160;23;20236;-71
2023/09/10 21:55:53;;;;;;;11.88;8.65;;;;;;;-145.68;92.38;73463.81;10414517;28;20193;-71
2023/09/10 22:00:55;;;;;;;12.32;7.80;;;;;;;-145.68;93.38;73481.81;10414353;28;20275;-71
2023/09/10 22:05:56;;;;;;;11.13;8.73;;;;;;;-145.68;94.37;73499.78;10414295;28;20299;-71
2023/09/10 22:11:01;;;;;;;11.00;8.52;;;;;;;-145.68;94.99;73503.78;10398363;28;20220;-71
2023/09/10 22:16:01;;;;;;;12.15;8.30;;;;;;;-145.68;93.24;73497.78;10412739;28;20215;-71
2023/09/10 22:21:02;;;;;;;11.35;8.57;;;;;;;-145.68;92.81;73503.78;10412674;28;20725;-70
2023/09/10 22:26:02;;;;;;;15.93;8.50;;;;;;;-145.68;93.16;73505.78;10413542;28;20196;-71
2023/09/10 22:31:03;;;;;;;9.05;7.63;;;;;;;-145.68;93.38;73509.78;10414947;28;20228;-71
2023/09/10 22:36:04;;;;;;;13.00;6.95;;;;;;;-145.68;93.12;73503.78;10413351;28;20208;-70
2023/09/10 22:41:05;;;;;;;10.60;7.35;;;;;;;-145.68;92.69;73509.78;10412575;28;20577;-71
2023/09/10 22:46:09;;;;;;;15.07;7.53;;;;;;;-145.68;93.52;73527.78;10412746;28;20269;-71